createdAt,value
2019-04-22T00:04:32.367Z,15.40
2019-04-22T00:09:53.011Z,15.30
2019-04-22T00:14:55.561Z,15.20
2019-04-22T00:25:17.673Z,15.10
2019-04-22T00:35:26.842Z,15.00
2019-04-22T00:40:33.919Z,14.80
2019-04-22T00:45:44.558Z,14.70
2019-04-22T00:51:01.695Z,14.60
2019-04-22T00:56:08.123Z,14.60
2019-04-22T01:06:20.355Z,14.50
2019-04-22T01:11:29.530Z,14.40
2019-04-22T01:16:37.958Z,14.30
2019-04-22T01:21:40.815Z,14.20
2019-04-22T01:26:43.380Z,14.00
2019-04-22T01:31:36.282Z,14.00
2019-04-22T01:36:57.763Z,14.00
2019-04-22T01:42:10.465Z,13.90
2019-04-22T01:47:22.955Z,13.90
2019-04-22T01:52:20.304Z,13.80
2019-04-22T01:57:30.090Z,13.80
2019-04-22T02:02:42.262Z,13.80
2019-04-22T02:07:49.288Z,13.70
2019-04-22T02:12:57.763Z,13.60
2019-04-22T02:18:11.585Z,13.60
2019-04-22T02:23:45.810Z,13.40
2019-04-22T02:28:40.065Z,13.40
2019-04-22T02:44:08.423Z,13.10
2019-04-22T02:49:25.339Z,13.10
2019-04-22T02:54:36.473Z,13.10
2019-04-22T02:59:28.774Z,13.10
2019-04-22T03:04:24.259Z,13.10
2019-04-22T03:30:45.435Z,13.10
2019-04-22T03:40:34.614Z,13.10
2019-04-22T03:55:45.088Z,13.10
2019-04-22T04:10:57.873Z,13.10
2019-04-22T04:16:10.841Z,13.10
2019-04-22T04:42:07.314Z,13.30
2019-04-22T04:52:14.543Z,13.50
2019-04-22T04:57:14.435Z,13.70
2019-04-22T05:17:47.161Z,14.60
2019-04-22T05:28:06.940Z,15.10
2019-04-22T05:32:58.708Z,15.40
2019-04-22T05:38:13.411Z,15.70
2019-04-22T05:43:29.486Z,16.00
2019-04-22T05:48:18.358Z,16.30
2019-04-22T05:53:25.867Z,16.70
2019-04-22T05:58:38.428Z,17.10
2019-04-22T06:03:46.596Z,18.50
2019-04-22T06:08:48.839Z,19.70
2019-04-22T06:13:51.976Z,21.20
2019-04-22T06:19:12.598Z,22.60
2019-04-22T06:24:20.401Z,23.60
2019-04-22T06:39:46.719Z,27.10
2019-04-22T06:44:58.136Z,28.00
2019-04-22T06:49:52.686Z,27.90
2019-04-22T06:54:54.802Z,28.80
2019-04-22T07:00:05.312Z,30.00
2019-04-22T07:05:07.808Z,30.90
2019-04-22T07:10:30.476Z,31.90
2019-04-22T07:15:44.143Z,33.20
2019-04-22T07:25:56.541Z,35.10
2019-04-22T07:30:44.782Z,36.80
2019-04-22T07:36:12.549Z,38.10
2019-04-22T07:40:59.511Z,39.30
2019-04-22T07:46:11.335Z,40.50
2019-04-22T07:56:23.937Z,43.10
2019-04-22T08:01:30.859Z,44.30
2019-04-22T08:06:46.375Z,45.10
2019-04-22T08:11:51.263Z,46.00
2019-04-22T08:17:05.056Z,46.80
2019-04-22T08:22:01.482Z,46.20
2019-04-22T08:27:10.340Z,45.40
2019-04-22T08:32:14.603Z,45.90
2019-04-22T08:42:45.163Z,45.00
2019-04-22T08:52:55.884Z,46.10
2019-04-22T08:58:16.719Z,47.30
2019-04-22T09:03:04.398Z,48.90
2019-04-22T09:08:15.572Z,49.80
2019-04-22T09:13:14.538Z,49.70
2019-04-22T09:23:37.235Z,51.60
2019-04-22T09:28:44.377Z,50.90
2019-04-22T09:33:43.216Z,50.60
2019-04-22T09:38:52.803Z,51.00
2019-04-22T09:49:12.139Z,46.20
2019-04-22T09:54:21.827Z,43.40
2019-04-22T09:59:23.778Z,38.50
2019-04-22T10:04:34.702Z,34.50
2019-04-22T10:09:49.520Z,31.80
2019-04-22T10:19:53.006Z,27.70
2019-04-22T10:25:06.316Z,26.50
2019-04-22T10:30:08.521Z,25.70
2019-04-22T10:35:18.315Z,25.20
2019-04-22T10:40:25.768Z,25.00
2019-04-22T10:45:32.403Z,24.70
2019-04-22T10:50:43.371Z,24.70
2019-04-22T10:55:51.058Z,24.70
2019-04-22T11:00:58.111Z,24.70
2019-04-22T11:06:05.514Z,24.60
2019-04-22T11:11:26.257Z,24.50
2019-04-22T11:16:19.356Z,24.60
2019-04-22T11:21:25.435Z,24.60
2019-04-22T11:26:31.805Z,24.60
2019-04-22T11:31:38.684Z,24.60
2019-04-22T11:36:45.043Z,24.50
2019-04-22T11:41:51.908Z,24.50
2019-04-22T11:46:57.487Z,24.50
2019-04-22T11:52:06.506Z,24.60
2019-04-22T11:57:10.834Z,24.60
2019-04-22T12:02:19.236Z,24.70
2019-04-22T12:07:24.596Z,24.70
2019-04-22T12:12:30.085Z,24.80
2019-04-22T12:17:36.250Z,24.90
2019-04-22T12:22:42.938Z,24.90
2019-04-22T12:27:48.684Z,24.90
2019-04-22T12:32:54.647Z,25.00
2019-04-22T12:38:06.113Z,25.00
2019-04-22T12:43:08.685Z,25.00
2019-04-22T12:48:15.100Z,25.10
2019-04-22T12:53:24.915Z,25.10
2019-04-22T12:58:27.811Z,25.20
2019-04-22T13:03:34.109Z,25.20
2019-04-22T13:08:39.624Z,25.20
2019-04-22T13:13:45.217Z,25.20
2019-04-22T13:18:57.586Z,25.20
2019-04-22T13:23:59.108Z,25.30
2019-04-22T13:29:05.246Z,25.40
2019-04-22T13:34:21.619Z,25.50
2019-04-22T13:39:18.784Z,25.60
2019-04-22T13:44:25.094Z,25.70
2019-04-22T13:50:18.226Z,25.70
2019-04-22T13:55:01.729Z,25.80
2019-04-22T13:59:50.527Z,25.90
2019-04-22T14:04:52.844Z,26.00
2019-04-22T14:09:58.423Z,26.10
2019-04-22T14:15:04.271Z,26.00
2019-04-22T14:20:10.939Z,26.10
2019-04-22T14:25:16.678Z,26.10
2019-04-22T14:30:22.440Z,26.20
2019-04-22T14:35:29.075Z,26.10
2019-04-22T14:40:36.221Z,26.10
2019-04-22T14:51:07.219Z,26.10
2019-04-22T14:55:56.344Z,26.10
2019-04-22T15:01:03.220Z,26.20
2019-04-22T15:06:10.414Z,26.00
2019-04-22T15:11:17.183Z,26.00
2019-04-22T15:16:42.594Z,25.90
2019-04-22T15:21:48.115Z,25.90
2019-04-22T15:26:54.216Z,25.90
2019-04-22T15:31:59.981Z,25.90
2019-04-22T15:37:06.538Z,25.80
2019-04-22T15:42:19.843Z,25.80
2019-04-22T15:47:20.651Z,25.70
2019-04-22T15:52:32.020Z,25.70
2019-04-22T15:57:38.027Z,25.60
2019-04-22T16:02:45.710Z,25.50
2019-04-22T16:07:53.011Z,25.50
2019-04-22T16:13:14.492Z,25.40
2019-04-22T16:18:18.226Z,25.20
2019-04-22T16:23:56.428Z,25.10
2019-04-22T16:29:03.329Z,25.00
2019-04-22T16:34:09.451Z,25.00
2019-04-22T16:39:15.309Z,24.90
2019-04-22T16:44:20.821Z,24.80
2019-04-22T16:49:27.627Z,24.70
2019-04-22T16:54:33.150Z,24.70
2019-04-22T16:59:38.543Z,24.50
2019-04-22T17:04:51.824Z,24.40
2019-04-22T17:09:57.646Z,24.30
2019-04-22T17:15:08.074Z,24.20
2019-04-22T17:20:11.298Z,24.10
2019-04-22T17:25:18.274Z,23.90
2019-04-22T17:30:24.371Z,23.80
2019-04-22T17:35:31.591Z,23.70
2019-04-22T17:40:52.200Z,23.60
2019-04-22T17:46:24.710Z,23.60
2019-04-22T17:51:39.644Z,23.50
2019-04-22T17:56:58.540Z,23.40
2019-04-22T18:01:48.870Z,23.30
2019-04-22T18:07:10.222Z,23.10
2019-04-22T18:12:16.303Z,23.00
2019-04-22T18:17:17.406Z,22.80
2019-04-22T18:22:12.550Z,22.70
2019-04-22T18:27:40.160Z,22.60
2019-04-22T18:32:30.553Z,22.40
2019-04-22T18:37:46.875Z,22.20
2019-04-22T18:42:52.529Z,22.10
2019-04-22T18:47:48.802Z,21.90
2019-04-22T18:53:28.653Z,21.70
2019-04-22T18:58:21.276Z,21.50
2019-04-22T19:03:21.755Z,21.40
2019-04-22T19:08:43.028Z,21.30
2019-04-22T19:14:05.942Z,21.10
2019-04-22T19:19:20.630Z,21.00
2019-04-22T19:24:06.759Z,20.70
2019-04-22T19:29:21.893Z,20.60
2019-04-22T19:34:20.568Z,20.50
2019-04-22T19:39:27.298Z,20.40
2019-04-22T19:44:41.148Z,20.20
2019-04-22T19:49:52.911Z,20.10
2019-04-22T19:54:54.945Z,20.00
2019-04-22T19:59:56.241Z,19.80
2019-04-22T20:05:33.649Z,19.60
2019-04-22T20:10:38.016Z,19.40
2019-04-22T20:15:37.095Z,19.30
2019-04-22T20:20:54.384Z,19.20
2019-04-22T20:25:51.401Z,19.00
2019-04-22T20:31:04.017Z,18.90
2019-04-22T20:36:36.411Z,18.80
2019-04-22T20:41:17.010Z,18.60
2019-04-22T20:46:23.872Z,18.50
2019-04-22T20:51:43.908Z,18.40
2019-04-22T20:56:38.643Z,18.20
2019-04-22T21:01:43.058Z,18.10
2019-04-22T21:06:54.316Z,18.00
2019-04-22T21:11:56.684Z,17.90
2019-04-22T21:17:08.055Z,17.80
2019-04-22T21:22:22.103Z,17.60
2019-04-22T21:27:28.271Z,17.50
2019-04-22T21:32:33.947Z,17.40
2019-04-22T21:37:43.273Z,17.30
2019-04-22T21:42:53.095Z,17.20
2019-04-22T21:48:04.529Z,17.00
2019-04-22T21:53:09.829Z,17.00
2019-04-22T21:58:19.524Z,16.80
2019-04-22T22:03:23.599Z,16.70
2019-04-22T22:08:42.326Z,16.70
2019-04-22T22:13:40.320Z,16.60
2019-04-22T22:18:50.824Z,16.50
2019-04-22T22:24:01.302Z,16.40
2019-04-22T22:29:07.761Z,16.30
2019-04-22T22:34:13.709Z,16.20
2019-04-22T22:39:08.605Z,16.10
2019-04-22T22:44:11.559Z,16.00
2019-04-22T22:49:33.000Z,15.90
2019-04-22T22:54:39.247Z,15.80
2019-04-22T22:59:44.199Z,15.80
2019-04-22T23:04:51.183Z,15.70
2019-04-22T23:10:01.677Z,15.60
2019-04-22T23:15:06.261Z,15.50
2019-04-22T23:19:55.782Z,15.40
2019-04-22T23:25:27.489Z,15.40
2019-04-22T23:30:35.865Z,15.30
2019-04-22T23:35:59.453Z,15.10
2019-04-22T23:41:40.374Z,15.00
2019-04-22T23:46:41.171Z,14.90
2019-04-22T23:52:00.990Z,14.80
2019-04-22T23:56:52.581Z,14.80
